CheckWX is a tool to help pilots better visualize weather data.  It is not intended as a substitute for an official pre-flight weather briefing.

20:32:57 UTC

KJMS METAR
Jamestown Regional Airport
Jamestown, North Dakota, USA
Current

37 mins ago

KJMS 251956Z AUTO 33008KT 10SM SCT026 OVC035 17/12 A2998 RMK AO2 SLP154 T01670122
Observed
May-25 @ 19:56 UTC
Wind
  • 330° at 8 KTS
Visibility
Flight Rules
VFR
Cloud Levels
  • Scattered at 2,600' AGL
  • Overcast at 3,500' AGL
Temperature
17°C / 63°F
Dewpoint
12°C / 54°F
Humidity
73%
Altimeter
29.98" Hg
Pressure
1015.22 hPa
Previous

2 hours ago

KJMS 251856Z AUTO 33010KT 10SM FEW024 OVC033 17/12 A2998 RMK AO2 SLP155 T01670122
Observed
May-25 @ 18:56 UTC
Wind
  • 330° at 10 KTS
Visibility
Flight Rules
VFR
Cloud Levels
  • Few at 2,400' AGL
  • Overcast at 3,300' AGL
Temperature
17°C / 63°F
Dewpoint
12°C / 54°F
Humidity
73%
Altimeter
29.98" Hg
Pressure
1015.22 hPa
Previous

2 hours ago

KJMS 251833Z AUTO 33007KT 10SM FEW024 OVC030 17/12 A2999 RMK AO2 T01670117
Observed
May-25 @ 18:33 UTC
Wind
  • 330° at 7 KTS
Visibility
Flight Rules
MVFR
Cloud Levels
  • Few at 2,400' AGL
  • Overcast at 3,000' AGL
Temperature
17°C / 63°F
Dewpoint
12°C / 54°F
Humidity
73%
Altimeter
29.99" Hg
Pressure
1015.62 hPa